sensor_id;sensor_type;location;lat;lon;timestamp;pressure;altitude;pressure_sealevel;temperature;humidity
70976;BME280;58635;51.198;6.010;2022-11-20T00:01:21;101089.41;;;7.01;53.67
70976;BME280;58635;51.198;6.010;2022-11-20T00:03:46;101090.66;;;6.97;53.95
70976;BME280;58635;51.198;6.010;2022-11-20T00:06:14;101089.56;;;6.99;54.19
70976;BME280;58635;51.198;6.010;2022-11-20T00:08:40;101083.28;;;7.02;53.92
70976;BME280;58635;51.198;6.010;2022-11-20T00:11:15;101089.06;;;7.04;54.03
70976;BME280;58635;51.198;6.010;2022-11-20T00:13:41;101092.44;;;7.04;54.16
70976;BME280;58635;51.198;6.010;2022-11-20T00:16:09;101091.31;;;7.07;53.88
70976;BME280;58635;51.198;6.010;2022-11-20T00:18:35;101090.97;;;7.10;54.03
70976;BME280;58635;51.198;6.010;2022-11-20T00:21:05;101086.31;;;7.14;53.69
70976;BME280;58635;51.198;6.010;2022-11-20T00:23:31;101079.41;;;7.14;53.87
70976;BME280;58635;51.198;6.010;2022-11-20T00:26:03;101077.63;;;7.15;53.69
70976;BME280;58635;51.198;6.010;2022-11-20T00:28:29;101077.63;;;7.07;53.60
70976;BME280;58635;51.198;6.010;2022-11-20T00:31:06;101080.88;;;7.00;53.89
70976;BME280;58635;51.198;6.010;2022-11-20T00:33:32;101080.72;;;6.94;53.70
70976;BME280;58635;51.198;6.010;2022-11-20T00:36:06;101075.09;;;6.90;54.17
70976;BME280;58635;51.198;6.010;2022-11-20T00:38:32;101071.72;;;6.90;54.30
70976;BME280;58635;51.198;6.010;2022-11-20T00:40:59;101078.94;;;6.94;54.28
70976;BME280;58635;51.198;6.010;2022-11-20T00:43:26;101074.44;;;6.96;54.29
70976;BME280;58635;51.198;6.010;2022-11-20T00:46:01;101068.03;;;7.00;54.30
70976;BME280;58635;51.198;6.010;2022-11-20T00:48:27;101068.66;;;7.02;54.33
70976;BME280;58635;51.198;6.010;2022-11-20T00:50:53;101077.34;;;7.01;54.30
70976;BME280;58635;51.198;6.010;2022-11-20T00:53:19;101074.13;;;6.99;54.01
70976;BME280;58635;51.198;6.010;2022-11-20T00:55:58;101070.88;;;6.97;53.92
70976;BME280;58635;51.198;6.010;2022-11-20T00:58:27;101062.38;;;6.97;54.14
70976;BME280;58635;51.198;6.010;2022-11-20T01:01:00;101064.94;;;6.97;54.14
70976;BME280;58635;51.198;6.010;2022-11-20T01:03:26;101065.13;;;6.95;54.41
70976;BME280;58635;51.198;6.010;2022-11-20T01:05:51;101059.81;;;6.97;54.50
70976;BME280;58635;51.198;6.010;2022-11-20T01:08:16;101061.28;;;6.99;54.32
70976;BME280;58635;51.198;6.010;2022-11-20T01:10:42;101063.84;;;6.99;54.65
70976;BME280;58635;51.198;6.010;2022-11-20T01:13:07;101067.84;;;7.02;54.77
70976;BME280;58635;51.198;6.010;2022-11-20T01:15:51;101065.13;;;7.03;54.67
70976;BME280;58635;51.198;6.010;2022-11-20T01:18:16;101060.78;;;7.04;54.63
70976;BME280;58635;51.198;6.010;2022-11-20T01:20:42;101059.81;;;7.05;54.83
70976;BME280;58635;51.198;6.010;2022-11-20T01:23:07;101063.00;;;7.07;55.09
70976;BME280;58635;51.198;6.010;2022-11-20T01:25:34;101046.59;;;7.08;55.05
70976;BME280;58635;51.198;6.010;2022-11-20T01:27:59;101048.88;;;7.11;54.84
70976;BME280;58635;51.198;6.010;2022-11-20T01:30:24;101054.81;;;7.12;54.82
70976;BME280;58635;51.198;6.010;2022-11-20T01:32:50;101053.06;;;7.12;54.82
70976;BME280;58635;51.198;6.010;2022-11-20T01:35:16;101054.66;;;7.13;55.01
70976;BME280;58635;51.198;6.010;2022-11-20T01:37:41;101056.25;;;7.14;55.04
70976;BME280;58635;51.198;6.010;2022-11-20T01:40:07;101049.34;;;7.15;54.88
70976;BME280;58635;51.198;6.010;2022-11-20T01:42:32;101052.72;;;7.15;54.76
70976;BME280;58635;51.198;6.010;2022-11-20T01:48:20;101048.06;;;7.11;54.97
70976;BME280;58635;51.198;6.010;2022-11-20T01:50:48;101055.94;;;7.09;54.91
70976;BME280;58635;51.198;6.010;2022-11-20T01:53:15;101055.13;;;7.09;55.04
70976;BME280;58635;51.198;6.010;2022-11-20T01:55:48;101053.34;;;7.09;54.94
70976;BME280;58635;51.198;6.010;2022-11-20T01:58:16;101053.53;;;7.08;55.06
70976;BME280;58635;51.198;6.010;2022-11-20T02:00:41;101047.56;;;7.07;54.98
70976;BME280;58635;51.198;6.010;2022-11-20T02:03:11;101045.00;;;7.07;55.14
70976;BME280;58635;51.198;6.010;2022-11-20T02:08:21;101036.66;;;7.05;55.24
70976;BME280;58635;51.198;6.010;2022-11-20T02:10:48;101027.34;;;7.04;55.25
70976;BME280;58635;51.198;6.010;2022-11-20T02:13:13;101032.00;;;7.00;55.28
70976;BME280;58635;51.198;6.010;2022-11-20T02:15:58;101025.56;;;6.96;55.19
70976;BME280;58635;51.198;6.010;2022-11-20T02:18:23;101021.72;;;6.92;55.33
70976;BME280;58635;51.198;6.010;2022-11-20T02:20:54;101035.09;;;6.88;54.92
70976;BME280;58635;51.198;6.010;2022-11-20T02:23:39;101040.69;;;6.83;55.43
70976;BME280;58635;51.198;6.010;2022-11-20T02:26:07;101045.38;;;6.80;55.35
70976;BME280;58635;51.198;6.010;2022-11-20T02:28:34;101045.88;;;6.75;55.18
70976;BME280;58635;51.198;6.010;2022-11-20T02:31:00;101045.38;;;6.71;55.27
70976;BME280;58635;51.198;6.010;2022-11-20T02:33:26;101050.03;;;6.68;55.27
70976;BME280;58635;51.198;6.010;2022-11-20T02:35:51;101046.19;;;6.64;55.63
70976;BME280;58635;51.198;6.010;2022-11-20T02:38:17;101051.78;;;6.59;55.35
70976;BME280;58635;51.198;6.010;2022-11-20T02:40:43;101050.69;;;6.54;55.28
70976;BME280;58635;51.198;6.010;2022-11-20T02:43:09;101050.03;;;6.52;55.95
70976;BME280;58635;51.198;6.010;2022-11-20T02:45:34;101051.31;;;6.48;56.00
70976;BME280;58635;51.198;6.010;2022-11-20T02:48:00;101050.34;;;6.49;56.20
70976;BME280;58635;51.198;6.010;2022-11-20T02:50:25;101058.22;;;6.47;56.27
70976;BME280;58635;51.198;6.010;2022-11-20T02:52:51;101059.00;;;6.48;56.47
70976;BME280;58635;51.198;6.010;2022-11-20T02:55:16;101055.66;;;6.47;56.40
70976;BME280;58635;51.198;6.010;2022-11-20T02:57:42;101060.78;;;6.47;56.31
70976;BME280;58635;51.198;6.010;2022-11-20T03:00:08;101056.59;;;6.46;56.08
70976;BME280;58635;51.198;6.010;2022-11-20T03:02:33;101055.66;;;6.47;56.36
70976;BME280;58635;51.198;6.010;2022-11-20T03:04:59;101051.31;;;6.48;56.28
70976;BME280;58635;51.198;6.010;2022-11-20T03:07:24;101051.31;;;6.48;56.24
70976;BME280;58635;51.198;6.010;2022-11-20T03:09:50;101050.34;;;6.49;56.44
70976;BME280;58635;51.198;6.010;2022-11-20T03:12:15;101050.19;;;6.50;56.25
70976;BME280;58635;51.198;6.010;2022-11-20T03:14:40;101048.41;;;6.51;56.02
70976;BME280;58635;51.198;6.010;2022-11-20T03:17:06;101042.47;;;6.50;55.92
70976;BME280;58635;51.198;6.010;2022-11-20T03:19:31;101052.75;;;6.50;56.05
70976;BME280;58635;51.198;6.010;2022-11-20T03:21:57;101042.47;;;6.50;56.05
70976;BME280;58635;51.198;6.010;2022-11-20T03:24:22;101043.44;;;6.49;55.91
70976;BME280;58635;51.198;6.010;2022-11-20T03:26:47;101042.63;;;6.49;56.04
70976;BME280;58635;51.198;6.010;2022-11-20T03:29:13;101039.25;;;6.48;56.49
70976;BME280;58635;51.198;6.010;2022-11-20T03:31:39;101043.44;;;6.49;56.22
70976;BME280;58635;51.198;6.010;2022-11-20T03:34:05;101040.22;;;6.47;55.86
70976;BME280;58635;51.198;6.010;2022-11-20T03:36:31;101028.34;;;6.46;56.04
70976;BME280;58635;51.198;6.010;2022-11-20T03:38:57;101028.69;;;6.43;55.85
70976;BME280;58635;51.198;6.010;2022-11-20T03:41:27;101034.44;;;6.45;56.02
70976;BME280;58635;51.198;6.010;2022-11-20T03:43:57;101024.81;;;6.47;56.35
70976;BME280;58635;51.198;6.010;2022-11-20T03:46:23;101026.56;;;6.47;55.97
70976;BME280;58635;51.198;6.010;2022-11-20T03:48:49;101019.03;;;6.45;56.42
70976;BME280;58635;51.198;6.010;2022-11-20T03:51:16;101018.22;;;6.44;55.99
70976;BME280;58635;51.198;6.010;2022-11-20T03:53:43;101011.66;;;6.42;55.90
70976;BME280;58635;51.198;6.010;2022-11-20T03:56:10;101014.53;;;6.39;56.19
70976;BME280;58635;51.198;6.010;2022-11-20T03:58:37;101020.50;;;6.39;56.55
70976;BME280;58635;51.198;6.010;2022-11-20T04:01:08;101018.72;;;6.40;56.25
70976;BME280;58635;51.198;6.010;2022-11-20T04:03:35;101013.59;;;6.40;56.35
70976;BME280;58635;51.198;6.010;2022-11-20T04:06:03;101018.72;;;6.40;56.49
70976;BME280;58635;51.198;6.010;2022-11-20T04:08:29;101021.94;;;6.42;56.80
70976;BME280;58635;51.198;6.010;2022-11-20T04:10:55;101015.03;;;6.42;56.83
70976;BME280;58635;51.198;6.010;2022-11-20T04:13:20;101004.75;;;6.42;56.50
70976;BME280;58635;51.198;6.010;2022-11-20T04:15:45;101010.53;;;6.44;56.95
70976;BME280;58635;51.198;6.010;2022-11-20T04:18:11;101007.16;;;6.44;56.05
70976;BME280;58635;51.198;6.010;2022-11-20T04:20:36;101001.38;;;6.42;56.70
70976;BME280;58635;51.198;6.010;2022-11-20T04:23:02;101008.28;;;6.41;56.56
70976;BME280;58635;51.198;6.010;2022-11-20T04:25:27;101007.47;;;6.41;56.71
70976;BME280;58635;51.198;6.010;2022-11-20T04:27:52;101010.84;;;6.41;56.71
70976;BME280;58635;51.198;6.010;2022-11-20T04:30:18;101009.09;;;6.42;56.70
70976;BME280;58635;51.198;6.010;2022-11-20T04:32:43;101002.97;;;6.43;56.46
70976;BME280;58635;51.198;6.010;2022-11-20T04:35:08;101004.75;;;6.42;56.48
70976;BME280;58635;51.198;6.010;2022-11-20T04:37:34;101010.06;;;6.41;56.65
70976;BME280;58635;51.198;6.010;2022-11-20T04:39:59;101010.84;;;6.41;56.72
70976;BME280;58635;51.198;6.010;2022-11-20T04:42:24;101013.41;;;6.41;56.62
70976;BME280;58635;51.198;6.010;2022-11-20T04:44:56;101019.53;;;6.40;56.81
70976;BME280;58635;51.198;6.010;2022-11-20T04:47:22;101011.81;;;6.40;56.60
70976;BME280;58635;51.198;6.010;2022-11-20T04:49:47;101011.81;;;6.40;56.25
70976;BME280;58635;51.198;6.010;2022-11-20T04:52:13;101012.13;;;6.37;56.28
70976;BME280;58635;51.198;6.010;2022-11-20T04:54:38;101011.31;;;6.37;56.49
70976;BME280;58635;51.198;6.010;2022-11-20T04:57:04;101018.84;;;6.38;56.32
70976;BME280;58635;51.198;6.010;2022-11-20T04:59:29;101012.13;;;6.37;56.46
70976;BME280;58635;51.198;6.010;2022-11-20T05:01:55;101013.72;;;6.38;56.60
70976;BME280;58635;51.198;6.010;2022-11-20T05:04:20;101010.34;;;6.38;56.68
70976;BME280;58635;51.198;6.010;2022-11-20T05:06:45;101007.13;;;6.36;56.26
70976;BME280;58635;51.198;6.010;2022-11-20T05:09:12;101001.03;;;6.37;56.38
70976;BME280;58635;51.198;6.010;2022-11-20T05:11:37;101007.94;;;6.36;56.50
70976;BME280;58635;51.198;6.010;2022-11-20T05:14:03;101008.75;;;6.37;56.73
70976;BME280;58635;51.198;6.010;2022-11-20T05:16:28;101006.19;;;6.37;56.66
70976;BME280;58635;51.198;6.010;2022-11-20T05:18:54;101002.00;;;6.36;56.49
70976;BME280;58635;51.198;6.010;2022-11-20T05:21:20;100999.44;;;6.36;56.44
70976;BME280;58635;51.198;6.010;2022-11-20T05:23:46;100992.53;;;6.36;56.20
70976;BME280;58635;51.198;6.010;2022-11-20T05:26:14;100989.16;;;6.36;56.49
70976;BME280;58635;51.198;6.010;2022-11-20T05:28:40;100990.94;;;6.35;56.69
70976;BME280;58635;51.198;6.010;2022-11-20T05:31:11;100976.16;;;6.37;56.63
70976;BME280;58635;51.198;6.010;2022-11-20T05:33:38;100980.47;;;6.37;56.65
70976;BME280;58635;51.198;6.010;2022-11-20T05:36:04;100978.72;;;6.37;56.48
70976;BME280;58635;51.198;6.010;2022-11-20T05:38:30;100967.63;;;6.37;56.48
70976;BME280;58635;51.198;6.010;2022-11-20T05:41:03;100973.75;;;6.36;56.57
70976;BME280;58635;51.198;6.010;2022-11-20T05:43:28;100972.31;;;6.33;56.28
70976;BME280;58635;51.198;6.010;2022-11-20T05:45:54;100968.31;;;6.31;56.87
70976;BME280;58635;51.198;6.010;2022-11-20T05:48:19;100972.94;;;6.27;56.58
70976;BME280;58635;51.198;6.010;2022-11-20T05:50:45;100975.03;;;6.24;56.82
70976;BME280;58635;51.198;6.010;2022-11-20T05:53:10;100981.28;;;6.21;56.98
70976;BME280;58635;51.198;6.010;2022-11-20T05:55:35;100982.25;;;6.20;56.95
70976;BME280;58635;51.198;6.010;2022-11-20T05:58:01;100984.03;;;6.20;56.85
70976;BME280;58635;51.198;6.010;2022-11-20T06:00:26;100984.66;;;6.22;56.98
70976;BME280;58635;51.198;6.010;2022-11-20T06:02:52;100983.69;;;6.23;56.97
70976;BME280;58635;51.198;6.010;2022-11-20T06:05:17;100981.28;;;6.21;56.94
70976;BME280;58635;51.198;6.010;2022-11-20T06:07:42;100990.44;;;6.24;57.32
70976;BME280;58635;51.198;6.010;2022-11-20T06:10:08;100992.03;;;6.25;57.55
70976;BME280;58635;51.198;6.010;2022-11-20T06:12:34;100986.91;;;6.25;57.70
70976;BME280;58635;51.198;6.010;2022-11-20T06:14:59;100995.25;;;6.27;57.43
70976;BME280;58635;51.198;6.010;2022-11-20T06:17:25;100996.06;;;6.27;57.72
70976;BME280;58635;51.198;6.010;2022-11-20T06:19:50;100998.63;;;6.27;57.76
70976;BME280;58635;51.198;6.010;2022-11-20T06:22:16;101000.09;;;6.30;57.62
70976;BME280;58635;51.198;6.010;2022-11-20T06:24:41;100987.88;;;6.32;57.65
70976;BME280;58635;51.198;6.010;2022-11-20T06:27:06;101002.34;;;6.33;57.65
70976;BME280;58635;51.198;6.010;2022-11-20T06:29:32;101005.38;;;6.36;57.81
70976;BME280;58635;51.198;6.010;2022-11-20T06:31:57;101009.53;;;6.37;57.71
70976;BME280;58635;51.198;6.010;2022-11-20T06:34:22;101015.19;;;6.41;57.78
70976;BME280;58635;51.198;6.010;2022-11-20T06:36:48;101009.88;;;6.42;57.83
70976;BME280;58635;51.198;6.010;2022-11-20T06:39:13;101011.97;;;6.47;57.93
70976;BME280;58635;51.198;6.010;2022-11-20T06:41:38;101009.88;;;6.51;57.90
70976;BME280;58635;51.198;6.010;2022-11-20T06:44:04;101019.03;;;6.53;57.87
70976;BME280;58635;51.198;6.010;2022-11-20T06:46:31;101023.84;;;6.56;58.08
70976;BME280;58635;51.198;6.010;2022-11-20T06:48:56;101025.28;;;6.59;58.17
70976;BME280;58635;51.198;6.010;2022-11-20T06:51:23;101026.72;;;6.61;57.99
70976;BME280;58635;51.198;6.010;2022-11-20T06:53:48;101029.00;;;6.64;57.97
70976;BME280;58635;51.198;6.010;2022-11-20T06:56:13;101021.94;;;6.66;57.88
70976;BME280;58635;51.198;6.010;2022-11-20T06:58:39;101015.81;;;6.67;57.85
70976;BME280;58635;51.198;6.010;2022-11-20T07:01:07;101020.63;;;6.70;58.05
70976;BME280;58635;51.198;6.010;2022-11-20T07:03:33;101012.75;;;6.72;58.07
70976;BME280;58635;51.198;6.010;2022-11-20T07:06:00;101012.59;;;6.73;57.91
70976;BME280;58635;51.198;6.010;2022-11-20T07:08:26;101016.75;;;6.74;58.19
70976;BME280;58635;51.198;6.010;2022-11-20T07:10:52;101012.28;;;6.77;58.13
70976;BME280;58635;51.198;6.010;2022-11-20T07:13:17;101008.91;;;6.76;58.39
70976;BME280;58635;51.198;6.010;2022-11-20T07:15:42;101002.81;;;6.77;58.18
70976;BME280;58635;51.198;6.010;2022-11-20T07:18:08;101010.00;;;6.82;58.27
70976;BME280;58635;51.198;6.010;2022-11-20T07:20:33;100999.56;;;6.83;58.39
70976;BME280;58635;51.198;6.010;2022-11-20T07:22:59;101001.81;;;6.86;58.31
70976;BME280;58635;51.198;6.010;2022-11-20T07:25:27;100997.50;;;6.87;58.36
70976;BME280;58635;51.198;6.010;2022-11-20T07:27:59;101000.69;;;6.89;58.45
70976;BME280;58635;51.198;6.010;2022-11-20T07:30:28;101001.34;;;6.91;58.46
70976;BME280;58635;51.198;6.010;2022-11-20T07:32:54;100998.44;;;6.94;58.58
70976;BME280;58635;51.198;6.010;2022-11-20T07:35:21;100992.94;;;6.97;58.46
70976;BME280;58635;51.198;6.010;2022-11-20T07:37:46;100996.19;;;6.99;58.56
70976;BME280;58635;51.198;6.010;2022-11-20T07:40:15;101001.63;;;7.04;58.52
70976;BME280;58635;51.198;6.010;2022-11-20T07:42:53;101003.84;;;7.07;58.49
70976;BME280;58635;51.198;6.010;2022-11-20T07:45:20;101007.06;;;7.09;58.49
70976;BME280;58635;51.198;6.010;2022-11-20T07:47:46;100999.84;;;7.13;58.39
70976;BME280;58635;51.198;6.010;2022-11-20T07:50:12;100996.94;;;7.16;58.34
70976;BME280;58635;51.198;6.010;2022-11-20T07:52:38;100994.81;;;7.19;58.37
70976;BME280;58635;51.198;6.010;2022-11-20T07:55:04;100988.69;;;7.20;58.30
70976;BME280;58635;51.198;6.010;2022-11-20T07:57:30;100992.75;;;7.23;58.34
70976;BME280;58635;51.198;6.010;2022-11-20T07:59:55;100984.84;;;7.24;58.50
70976;BME280;58635;51.198;6.010;2022-11-20T08:02:21;100993.38;;;7.25;58.56
70976;BME280;58635;51.198;6.010;2022-11-20T08:04:46;100995.59;;;7.28;58.43
70976;BME280;58635;51.198;6.010;2022-11-20T08:07:11;100998.81;;;7.30;58.55
70976;BME280;58635;51.198;6.010;2022-11-20T08:09:37;101006.03;;;7.35;58.56
70976;BME280;58635;51.198;6.010;2022-11-20T08:12:02;100999.59;;;7.39;58.26
70976;BME280;58635;51.198;6.010;2022-11-20T08:14:46;101006.16;;;7.41;58.34
70976;BME280;58635;51.198;6.010;2022-11-20T08:17:12;101009.19;;;7.45;58.64
70976;BME280;58635;51.198;6.010;2022-11-20T08:19:37;100997.63;;;7.49;58.53
70976;BME280;58635;51.198;6.010;2022-11-20T08:22:03;100989.38;;;7.53;58.42
70976;BME280;58635;51.198;6.010;2022-11-20T08:24:28;100986.31;;;7.58;58.48
70976;BME280;58635;51.198;6.010;2022-11-20T08:26:53;100986.44;;;7.65;58.36
70976;BME280;58635;51.198;6.010;2022-11-20T08:29:19;100981.41;;;7.71;58.45
70976;BME280;58635;51.198;6.010;2022-11-20T08:31:44;100977.97;;;7.79;58.34
70976;BME280;58635;51.198;6.010;2022-11-20T08:34:09;100977.50;;;7.83;58.30
70976;BME280;58635;51.198;6.010;2022-11-20T08:36:35;100971.19;;;7.86;58.23
70976;BME280;58635;51.198;6.010;2022-11-20T08:39:02;100973.06;;;7.92;58.02
70976;BME280;58635;51.198;6.010;2022-11-20T08:41:28;100972.56;;;7.97;57.90
70976;BME280;58635;51.198;6.010;2022-11-20T08:44:00;100967.69;;;8.02;57.98
70976;BME280;58635;51.198;6.010;2022-11-20T08:46:31;100967.03;;;8.08;57.85
70976;BME280;58635;51.198;6.010;2022-11-20T08:49:03;100968.78;;;8.07;57.69
70976;BME280;58635;51.198;6.010;2022-11-20T08:51:29;100972.19;;;8.08;57.74
70976;BME280;58635;51.198;6.010;2022-11-20T08:53:54;100978.56;;;8.12;57.85
70976;BME280;58635;51.198;6.010;2022-11-20T08:56:20;100987.56;;;8.16;57.77
70976;BME280;58635;51.198;6.010;2022-11-20T08:58:45;100984.47;;;8.20;57.81
70976;BME280;58635;51.198;6.010;2022-11-20T09:01:10;100988.47;;;8.23;57.75
70976;BME280;58635;51.198;6.010;2022-11-20T09:03:36;100990.88;;;8.25;57.94
70976;BME280;58635;51.198;6.010;2022-11-20T09:06:04;100999.41;;;8.25;57.91
70976;BME280;58635;51.198;6.010;2022-11-20T09:08:30;100996.56;;;8.20;57.83
70976;BME280;58635;51.198;6.010;2022-11-20T09:10:57;100999.50;;;8.17;58.03
70976;BME280;58635;51.198;6.010;2022-11-20T09:13:23;100993.84;;;8.13;58.15
70976;BME280;58635;51.198;6.010;2022-11-20T09:15:59;100989.41;;;8.07;58.44
70976;BME280;58635;51.198;6.010;2022-11-20T09:18:26;100980.22;;;8.05;58.32
70976;BME280;58635;51.198;6.010;2022-11-20T09:20:56;100986.03;;;8.07;58.48
70976;BME280;58635;51.198;6.010;2022-11-20T09:23:22;100986.84;;;8.07;58.51
70976;BME280;58635;51.198;6.010;2022-11-20T09:25:48;100984.25;;;8.07;58.48
70976;BME280;58635;51.198;6.010;2022-11-20T09:28:13;100977.31;;;8.08;58.82
70976;BME280;58635;51.198;6.010;2022-11-20T09:30:39;100980.69;;;8.08;58.81
70976;BME280;58635;51.198;6.010;2022-11-20T09:33:05;100981.16;;;8.12;58.91
70976;BME280;58635;51.198;6.010;2022-11-20T09:35:31;100979.19;;;8.14;58.99
70976;BME280;58635;51.198;6.010;2022-11-20T09:37:57;100960.19;;;8.15;58.93
70976;BME280;58635;51.198;6.010;2022-11-20T09:40:27;100960.84;;;8.17;59.00
70976;BME280;58635;51.198;6.010;2022-11-20T09:43:08;100967.25;;;8.21;59.07
70976;BME280;58635;51.198;6.010;2022-11-20T09:45:50;100961.13;;;8.22;59.12
70976;BME280;58635;51.198;6.010;2022-11-20T09:48:36;100948.22;;;8.22;59.09
70976;BME280;58635;51.198;6.010;2022-11-20T09:51:16;100940.31;;;8.24;59.11
70976;BME280;58635;51.198;6.010;2022-11-20T09:56:33;100935.78;;;8.26;59.16
70976;BME280;58635;51.198;6.010;2022-11-20T09:59:03;100942.38;;;8.28;59.15
70976;BME280;58635;51.198;6.010;2022-11-20T10:01:32;100944.44;;;8.33;59.27
70976;BME280;58635;51.198;6.010;2022-11-20T10:04:19;100941.34;;;8.37;59.09
70976;BME280;58635;51.198;6.010;2022-11-20T10:09:53;100937.56;;;8.48;59.02
70976;BME280;58635;51.198;6.010;2022-11-20T10:17:50;100925.03;;;8.60;58.81
70976;BME280;58635;51.198;6.010;2022-11-20T10:29:01;100894.63;;;8.70;58.90
70976;BME280;58635;51.198;6.010;2022-11-20T10:31:39;100893.22;;;8.67;58.94
70976;BME280;58635;51.198;6.010;2022-11-20T10:34:23;100886.09;;;8.69;58.99
70976;BME280;58635;51.198;6.010;2022-11-20T10:37:17;100872.22;;;8.70;58.89
70976;BME280;58635;51.198;6.010;2022-11-20T10:42:19;100863.63;;;8.78;58.78
70976;BME280;58635;51.198;6.010;2022-11-20T10:45:01;100856.75;;;8.70;58.90
70976;BME280;58635;51.198;6.010;2022-11-20T10:47:29;100876.78;;;8.68;59.01
70976;BME280;58635;51.198;6.010;2022-11-20T10:49:58;100858.34;;;8.71;59.12
70976;BME280;58635;51.198;6.010;2022-11-20T11:00:32;100838.22;;;8.96;58.58
70976;BME280;58635;51.198;6.010;2022-11-20T11:02:57;100826.41;;;9.02;58.47
70976;BME280;58635;51.198;6.010;2022-11-20T11:05:41;100827.63;;;9.06;58.49
70976;BME280;58635;51.198;6.010;2022-11-20T11:08:16;100821.09;;;9.10;58.36
70976;BME280;58635;51.198;6.010;2022-11-20T11:10:54;100819.31;;;9.11;58.46
70976;BME280;58635;51.198;6.010;2022-11-20T11:13:26;100814.00;;;9.12;58.58
70976;BME280;58635;51.198;6.010;2022-11-20T11:15:52;100812.22;;;9.13;58.58
70976;BME280;58635;51.198;6.010;2022-11-20T11:18:30;100802.06;;;9.11;58.62
70976;BME280;58635;51.198;6.010;2022-11-20T11:20:57;100803.31;;;9.15;58.66
70976;BME280;58635;51.198;6.010;2022-11-20T11:23:34;100798.56;;;9.19;58.67
70976;BME280;58635;51.198;6.010;2022-11-20T11:26:01;100789.47;;;9.23;58.59
70976;BME280;58635;51.198;6.010;2022-11-20T11:28:28;100794.28;;;9.26;58.42
70976;BME280;58635;51.198;6.010;2022-11-20T11:30:54;100782.59;;;9.30;58.55
70976;BME280;58635;51.198;6.010;2022-11-20T11:33:21;100782.41;;;9.31;58.71
70976;BME280;58635;51.198;6.010;2022-11-20T11:36:01;100776.88;;;9.34;58.59
70976;BME280;58635;51.198;6.010;2022-11-20T11:40:53;100763.25;;;9.41;58.59
70976;BME280;58635;51.198;6.010;2022-11-20T11:43:23;100766.44;;;9.43;58.66
70976;BME280;58635;51.198;6.010;2022-11-20T11:46:25;100756.28;;;9.41;58.70
70976;BME280;58635;51.198;6.010;2022-11-20T11:49:00;100757.69;;;9.44;58.80
70976;BME280;58635;51.198;6.010;2022-11-20T11:51:36;100756.53;;;9.46;58.80
70976;BME280;58635;51.198;6.010;2022-11-20T11:54:13;100753.00;;;9.47;58.93
70976;BME280;58635;51.198;6.010;2022-11-20T11:56:40;100749.97;;;9.44;59.01
70976;BME280;58635;51.198;6.010;2022-11-20T11:59:13;100753.53;;;9.43;58.94
70976;BME280;58635;51.198;6.010;2022-11-20T12:01:47;100749.75;;;9.45;59.02
70976;BME280;58635;51.198;6.010;2022-11-20T12:04:25;100747.00;;;9.47;59.07
70976;BME280;58635;51.198;6.010;2022-11-20T12:10:00;100734.91;;;9.47;59.23
70976;BME280;58635;51.198;6.010;2022-11-20T12:12:38;100729.56;;;9.49;59.20
70976;BME280;58635;51.198;6.010;2022-11-20T12:15:11;100726.41;;;9.53;59.19
70976;BME280;58635;51.198;6.010;2022-11-20T12:17:37;100724.63;;;9.54;59.33
70976;BME280;58635;51.198;6.010;2022-11-20T12:20:02;100720.06;;;9.56;59.36
70976;BME280;58635;51.198;6.010;2022-11-20T12:22:34;100716.31;;;9.58;59.52
70976;BME280;58635;51.198;6.010;2022-11-20T12:25:24;100703.84;;;9.62;59.39
70976;BME280;58635;51.198;6.010;2022-11-20T12:31:16;100689.72;;;9.64;59.59
70976;BME280;58635;51.198;6.010;2022-11-20T12:33:59;100682.59;;;9.66;59.57
70976;BME280;58635;51.198;6.010;2022-11-20T12:37:08;100680.00;;;9.66;59.49
70976;BME280;58635;51.198;6.010;2022-11-20T12:39:58;100678.03;;;9.68;59.54
70976;BME280;58635;51.198;6.010;2022-11-20T12:42:45;100666.09;;;9.67;59.77
70976;BME280;58635;51.198;6.010;2022-11-20T12:45:46;100661.94;;;9.66;59.78
70976;BME280;58635;51.198;6.010;2022-11-20T12:56:28;100638.03;;;9.92;59.77
70976;BME280;58635;51.198;6.010;2022-11-20T13:07:06;100611.19;;;9.93;60.06
70976;BME280;58635;51.198;6.010;2022-11-20T13:09:42;100615.41;;;9.94;60.05
70976;BME280;58635;51.198;6.010;2022-11-20T13:12:16;100607.81;;;9.93;60.32
70976;BME280;58635;51.198;6.010;2022-11-20T13:17:57;100599.06;;;9.94;60.40
70976;BME280;58635;51.198;6.010;2022-11-20T13:20:23;100592.31;;;9.93;60.47
70976;BME280;58635;51.198;6.010;2022-11-20T13:22:51;100591.16;;;9.95;60.35
70976;BME280;58635;51.198;6.010;2022-11-20T13:25:29;100581.63;;;9.96;60.44
70976;BME280;58635;51.198;6.010;2022-11-20T13:27:57;100583.81;;;9.99;60.41
70976;BME280;58635;51.198;6.010;2022-11-20T13:30:25;100587.59;;;10.03;60.52
70976;BME280;58635;51.198;6.010;2022-11-20T13:33:06;100572.06;;;10.03;60.50
70976;BME280;58635;51.198;6.010;2022-11-20T13:38:12;100559.34;;;10.02;60.62
70976;BME280;58635;51.198;6.010;2022-11-20T13:40:51;100560.56;;;9.99;60.53
70976;BME280;58635;51.198;6.010;2022-11-20T13:43:26;100557.97;;;9.99;60.66
70976;BME280;58635;51.198;6.010;2022-11-20T13:46:04;100545.03;;;9.99;60.85
70976;BME280;58635;51.198;6.010;2022-11-20T13:48:33;100541.88;;;9.97;60.86
70976;BME280;58635;51.198;6.010;2022-11-20T14:02:00;100498.09;;;9.82;61.65
70976;BME280;58635;51.198;6.010;2022-11-20T14:04:33;100500.66;;;9.82;61.81
70976;BME280;58635;51.198;6.010;2022-11-20T14:07:00;100493.91;;;9.81;61.78
70976;BME280;58635;51.198;6.010;2022-11-20T14:09:28;100495.34;;;9.84;61.71
70976;BME280;58635;51.198;6.010;2022-11-20T14:11:54;100488.78;;;9.88;61.85
70976;BME280;58635;51.198;6.010;2022-11-20T14:14:25;100483.63;;;9.88;61.79
70976;BME280;58635;51.198;6.010;2022-11-20T14:16:52;100482.03;;;9.87;61.60
70976;BME280;58635;51.198;6.010;2022-11-20T14:21:47;100481.81;;;9.88;62.04
70976;BME280;58635;51.198;6.010;2022-11-20T14:24:13;100474.06;;;9.88;61.78
70976;BME280;58635;51.198;6.010;2022-11-20T14:26:45;100470.69;;;9.88;62.15
70976;BME280;58635;51.198;6.010;2022-11-20T14:29:16;100472.09;;;9.84;62.24